createdAt,value
2019-04-25T00:00:51.414Z,977.16
2019-04-25T00:01:52.316Z,977.19
2019-04-25T00:02:51.246Z,977.18
2019-04-25T00:03:51.414Z,977.22
2019-04-25T00:04:51.525Z,977.25
2019-04-25T00:05:52.279Z,977.24
2019-04-25T00:06:52.147Z,977.23
2019-04-25T00:07:51.467Z,977.23
2019-04-25T00:08:51.598Z,977.16
2019-04-25T00:09:51.712Z,977.18
2019-04-25T00:10:51.741Z,977.16
2019-04-25T00:11:52.295Z,977.17
2019-04-25T00:12:51.796Z,977.15
2019-04-25T00:13:51.594Z,977.20
2019-04-25T00:14:51.346Z,977.18
2019-04-25T00:15:51.917Z,977.16
2019-04-25T00:16:51.837Z,977.18
2019-04-25T00:17:52.209Z,977.18
2019-04-25T00:18:51.727Z,977.15
2019-04-25T00:19:52.704Z,977.12
2019-04-25T00:20:52.235Z,977.17
2019-04-25T00:21:51.679Z,977.13
2019-04-25T00:22:51.504Z,977.12
2019-04-25T00:23:51.593Z,977.10
2019-04-25T00:24:52.032Z,977.10
2019-04-25T00:25:51.319Z,977.10
2019-04-25T00:26:52.501Z,977.12
2019-04-25T00:27:51.647Z,977.12
2019-04-25T00:28:52.431Z,977.12
2019-04-25T00:29:51.677Z,977.14
2019-04-25T00:30:52.287Z,977.13
2019-04-25T00:31:51.374Z,977.12
2019-04-25T00:32:51.160Z,977.11
2019-04-25T00:33:53.119Z,977.11
2019-04-25T00:34:51.806Z,977.09
2019-04-25T00:35:51.721Z,977.06
2019-04-25T00:36:51.553Z,977.09
2019-04-25T00:37:52.524Z,977.07
2019-04-25T00:38:52.336Z,977.10
2019-04-25T00:39:51.713Z,977.13
2019-04-25T00:40:52.425Z,977.07
2019-04-25T00:41:52.053Z,977.07
2019-04-25T00:42:53.450Z,977.07
2019-04-25T00:43:51.742Z,977.08
2019-04-25T00:44:51.525Z,977.08
2019-04-25T00:45:51.702Z,977.07
2019-04-25T00:46:54.301Z,977.10
2019-04-25T00:47:51.861Z,977.05
2019-04-25T00:48:51.771Z,977.06
2019-04-25T00:49:52.377Z,977.06
2019-04-25T00:50:52.073Z,977.06
2019-04-25T00:51:52.348Z,977.07
2019-04-25T00:52:53.244Z,977.02
2019-04-25T00:53:52.270Z,977.01
2019-04-25T00:54:52.400Z,977.06
2019-04-25T00:55:52.526Z,977.10
2019-04-25T00:56:52.386Z,977.12
2019-04-25T00:57:52.516Z,977.08
2019-04-25T00:58:52.849Z,977.15
2019-04-25T00:59:52.828Z,977.12
2019-04-25T01:00:51.109Z,977.12
2019-04-25T01:01:51.842Z,977.11
2019-04-25T01:02:53.186Z,977.11
2019-04-25T01:03:53.230Z,977.17
2019-04-25T01:04:52.065Z,977.14
2019-04-25T01:05:53.285Z,977.13
2019-04-25T01:06:51.990Z,977.17
2019-04-25T01:07:52.460Z,977.16
2019-04-25T01:08:53.216Z,977.21
2019-04-25T01:09:52.420Z,977.24
2019-04-25T01:10:52.267Z,977.25
2019-04-25T01:11:52.334Z,977.28
2019-04-25T01:12:52.310Z,977.31
2019-04-25T01:13:52.491Z,977.37
2019-04-25T01:14:52.583Z,977.31
2019-04-25T01:15:52.565Z,977.34
2019-04-25T01:16:52.710Z,977.38
2019-04-25T01:17:51.493Z,977.38
2019-04-25T01:18:51.060Z,977.40
2019-04-25T01:19:51.082Z,977.43
2019-04-25T01:20:51.191Z,977.42
2019-04-25T01:21:51.208Z,977.43
2019-04-25T01:22:51.382Z,977.43
2019-04-25T01:23:51.457Z,977.37
2019-04-25T01:24:51.464Z,977.42
2019-04-25T01:25:51.591Z,977.38
2019-04-25T01:26:51.646Z,977.36
2019-04-25T01:27:51.809Z,977.35
2019-04-25T01:28:51.831Z,977.37
2019-04-25T01:29:51.930Z,977.38
2019-04-25T01:30:51.054Z,977.36
2019-04-25T01:31:51.054Z,977.30
2019-04-25T01:32:51.057Z,977.29
2019-04-25T01:33:51.053Z,977.30
2019-04-25T01:34:53.694Z,977.23
2019-04-25T01:35:51.053Z,977.27
2019-04-25T01:36:51.055Z,977.30
2019-04-25T01:37:51.100Z,977.32
2019-04-25T01:38:51.121Z,977.34
2019-04-25T01:39:51.115Z,977.34
2019-04-25T01:40:51.183Z,977.30
2019-04-25T01:41:51.285Z,977.38
2019-04-25T01:42:51.568Z,977.41
2019-04-25T01:43:53.114Z,977.46
2019-04-25T01:44:51.599Z,977.44
2019-04-25T01:45:51.767Z,977.44
2019-04-25T01:46:51.830Z,977.43
2019-04-25T01:47:52.040Z,977.42
2019-04-25T01:48:51.049Z,977.39
2019-04-25T01:49:51.046Z,977.39
2019-04-25T01:50:51.050Z,977.34
2019-04-25T01:51:51.052Z,977.29
2019-04-25T01:52:51.053Z,977.26
2019-04-25T01:53:51.045Z,977.26
2019-04-25T01:54:51.047Z,977.28
2019-04-25T01:55:58.106Z,977.27
2019-04-25T01:56:51.046Z,977.28
2019-04-25T01:57:51.041Z,977.31
2019-04-25T01:58:51.151Z,977.38
2019-04-25T01:59:51.375Z,977.35
2019-04-25T02:00:52.064Z,977.38
2019-04-25T02:01:51.087Z,977.34
2019-04-25T02:02:51.134Z,977.37
2019-04-25T02:03:51.268Z,977.37
2019-04-25T02:04:51.433Z,977.41
2019-04-25T02:05:51.435Z,977.43
2019-04-25T02:06:51.477Z,977.51
2019-04-25T02:07:51.518Z,977.51
2019-04-25T02:08:51.691Z,977.56
2019-04-25T02:09:51.723Z,977.53
2019-04-25T02:10:51.035Z,977.52
2019-04-25T02:11:51.082Z,977.51
2019-04-25T02:12:51.366Z,977.54
2019-04-25T02:13:51.478Z,977.57
2019-04-25T02:14:52.691Z,977.54
2019-04-25T02:15:52.153Z,977.62
2019-04-25T02:16:51.776Z,977.65
2019-04-25T02:17:51.790Z,977.67
2019-04-25T02:18:51.849Z,977.70
2019-04-25T02:19:51.966Z,977.67
2019-04-25T02:20:52.256Z,977.65
2019-04-25T02:21:51.425Z,977.70
2019-04-25T02:22:51.534Z,977.67
2019-04-25T02:23:51.745Z,977.74
2019-04-25T02:24:51.829Z,977.75
2019-04-25T02:26:03.435Z,977.73
2019-04-25T02:26:51.028Z,977.79
2019-04-25T02:27:51.030Z,977.79
2019-04-25T02:28:51.029Z,977.78
2019-04-25T02:29:51.039Z,977.76
2019-04-25T02:30:51.027Z,977.78
2019-04-25T02:31:51.035Z,977.82
2019-04-25T02:32:51.026Z,977.79
2019-04-25T02:33:51.035Z,977.72
2019-04-25T02:34:51.024Z,977.67
2019-04-25T02:35:51.025Z,977.67
2019-04-25T02:36:51.043Z,977.74
2019-04-25T02:37:51.023Z,977.73
2019-04-25T02:38:51.023Z,977.75
2019-04-25T02:39:51.029Z,977.80
2019-04-25T02:40:51.024Z,977.78
2019-04-25T02:41:51.031Z,977.77
2019-04-25T02:42:51.022Z,977.70
2019-04-25T02:43:51.037Z,977.66
2019-04-25T02:44:51.022Z,977.65
2019-04-25T02:45:51.018Z,977.65
2019-04-25T02:46:51.017Z,977.66
2019-04-25T02:47:51.018Z,977.66
2019-04-25T02:48:51.022Z,977.67
2019-04-25T02:49:51.016Z,977.70
2019-04-25T02:50:51.017Z,977.70
2019-04-25T02:51:51.020Z,977.69
2019-04-25T02:52:51.014Z,977.67
2019-04-25T02:53:51.014Z,977.69
2019-04-25T02:54:51.012Z,977.68
2019-04-25T02:55:51.016Z,977.64
2019-04-25T02:56:51.011Z,977.64
2019-04-25T02:57:51.014Z,977.63
2019-04-25T02:58:51.011Z,977.66
2019-04-25T02:59:51.011Z,977.69
2019-04-25T03:00:59.784Z,977.68
2019-04-25T03:01:51.008Z,977.72
2019-04-25T03:02:51.010Z,977.76
2019-04-25T03:03:51.014Z,977.77
2019-04-25T03:04:51.007Z,977.74
2019-04-25T03:05:51.007Z,977.76
2019-04-25T03:06:51.017Z,977.71
2019-04-25T03:07:51.006Z,977.73
2019-04-25T03:08:51.009Z,977.80
2019-04-25T03:09:51.005Z,977.80
2019-04-25T03:10:51.011Z,977.80
2019-04-25T03:11:51.007Z,977.82
2019-04-25T03:12:51.003Z,977.83
2019-04-25T03:13:51.001Z,977.82
2019-04-25T03:14:51.002Z,977.87
2019-04-25T03:15:52.796Z,977.87
2019-04-25T03:16:51.000Z,977.83
2019-04-25T03:17:50.999Z,977.83
2019-04-25T03:18:51.001Z,977.88
2019-04-25T03:19:51.009Z,977.82
2019-04-25T03:20:50.999Z,977.86
2019-04-25T03:21:51.008Z,977.81
2019-04-25T03:22:50.997Z,977.88
2019-04-25T03:23:51.001Z,977.88
2019-04-25T03:24:50.998Z,977.88
2019-04-25T03:25:50.993Z,977.86
2019-04-25T03:26:50.993Z,977.88
2019-04-25T03:27:50.994Z,977.89
2019-04-25T03:28:50.995Z,977.91
2019-04-25T03:29:50.992Z,977.89
2019-04-25T03:30:50.995Z,977.89
2019-04-25T03:31:50.994Z,977.87
2019-04-25T03:32:51.625Z,977.96
2019-04-25T03:33:50.991Z,977.96
2019-04-25T03:34:50.993Z,977.96
2019-04-25T03:35:50.989Z,977.96
2019-04-25T03:36:50.993Z,977.91
2019-04-25T03:37:50.990Z,977.92
2019-04-25T03:38:50.987Z,977.92
2019-04-25T03:39:50.987Z,977.95
2019-04-25T03:40:50.988Z,978.00
2019-04-25T03:41:50.984Z,977.97
2019-04-25T03:42:50.990Z,977.99
2019-04-25T03:43:50.985Z,977.97
2019-04-25T03:44:50.983Z,977.97
2019-04-25T03:45:50.982Z,977.98
2019-04-25T03:46:50.982Z,977.94
2019-04-25T03:47:50.986Z,978.00
2019-04-25T03:48:50.980Z,978.02
2019-04-25T03:49:50.983Z,978.00
2019-04-25T03:50:50.981Z,977.91
2019-04-25T03:51:50.979Z,977.86
2019-04-25T03:52:50.979Z,977.87
2019-04-25T03:53:50.978Z,977.82
2019-04-25T03:54:50.978Z,977.74
2019-04-25T03:55:50.976Z,977.76
2019-04-25T03:56:54.335Z,977.74
2019-04-25T03:57:50.974Z,977.74
2019-04-25T03:58:50.973Z,977.72
2019-04-25T03:59:50.974Z,977.71
2019-04-25T04:00:50.979Z,977.69
2019-04-25T04:01:50.972Z,977.63
2019-04-25T04:02:50.975Z,977.57
2019-04-25T04:03:50.974Z,977.50
2019-04-25T04:04:50.971Z,977.40
2019-04-25T04:05:50.970Z,977.36
2019-04-25T04:06:50.970Z,977.18
2019-04-25T04:07:50.968Z,977.13
2019-04-25T04:08:50.968Z,977.09
2019-04-25T04:09:50.966Z,977.05
2019-04-25T04:10:50.966Z,977.04
2019-04-25T04:11:50.966Z,977.02
2019-04-25T04:12:50.965Z,977.02
2019-04-25T04:13:50.964Z,977.08
2019-04-25T04:14:50.966Z,977.12
2019-04-25T04:15:50.967Z,977.09
2019-04-25T04:16:50.974Z,977.15
2019-04-25T04:17:50.969Z,977.20
2019-04-25T04:18:50.961Z,977.27
2019-04-25T04:19:50.960Z,977.24
2019-04-25T04:20:50.959Z,977.30
2019-04-25T04:21:50.959Z,977.33
2019-04-25T04:22:50.958Z,977.43
2019-04-25T04:23:50.956Z,977.47
2019-04-25T04:24:50.956Z,977.54
2019-04-25T04:25:50.957Z,977.61
2019-04-25T04:27:03.068Z,977.70
2019-04-25T04:27:50.960Z,977.69
2019-04-25T04:28:50.955Z,977.71
2019-04-25T04:29:50.952Z,977.76
2019-04-25T04:30:50.951Z,977.80
2019-04-25T04:31:50.951Z,977.79
2019-04-25T04:32:50.950Z,977.80
2019-04-25T04:33:50.949Z,977.79
2019-04-25T04:34:50.949Z,977.81
2019-04-25T04:35:50.959Z,977.85
2019-04-25T04:36:50.948Z,977.85
2019-04-25T04:37:50.948Z,977.91
2019-04-25T04:38:51.039Z,977.96
2019-04-25T04:39:50.945Z,977.90
2019-04-25T04:40:50.944Z,977.92
2019-04-25T04:41:50.951Z,977.94
2019-04-25T04:42:50.942Z,977.92
2019-04-25T04:43:50.942Z,977.90
2019-04-25T04:44:50.940Z,977.92
2019-04-25T04:45:50.940Z,977.90
2019-04-25T04:46:50.939Z,977.84
2019-04-25T04:47:50.939Z,977.84
2019-04-25T04:48:50.939Z,977.79
2019-04-25T04:49:50.936Z,977.81
2019-04-25T04:50:50.939Z,977.81
2019-04-25T04:51:50.936Z,977.78
2019-04-25T04:52:50.935Z,977.82
2019-04-25T04:53:50.936Z,977.83
2019-04-25T04:54:57.692Z,977.81
2019-04-25T04:55:50.933Z,977.81
2019-04-25T04:56:50.933Z,977.76
2019-04-25T04:57:50.931Z,977.76
2019-04-25T04:58:50.932Z,977.76
2019-04-25T04:59:50.931Z,977.74
2019-04-25T05:00:50.931Z,977.74
2019-04-25T05:01:50.930Z,977.72
2019-04-25T05:02:50.930Z,977.70
2019-04-25T05:03:50.929Z,977.66
2019-04-25T05:04:50.934Z,977.70
2019-04-25T05:05:50.936Z,977.69
2019-04-25T05:06:50.930Z,977.66
2019-04-25T05:07:50.926Z,977.63
2019-04-25T05:08:50.927Z,977.63
2019-04-25T05:09:50.922Z,977.61
2019-04-25T05:10:50.922Z,977.64
2019-04-25T05:11:50.923Z,977.61
2019-04-25T05:12:50.924Z,977.61
2019-04-25T05:13:50.922Z,977.67
2019-04-25T05:14:50.919Z,977.69
2019-04-25T05:15:50.920Z,977.67
2019-04-25T05:16:50.922Z,977.64
2019-04-25T05:17:50.918Z,977.66
2019-04-25T05:18:50.922Z,977.68
2019-04-25T05:19:50.921Z,977.68
2019-04-25T05:20:50.918Z,977.67
2019-04-25T05:21:50.916Z,977.66
2019-04-25T05:22:50.916Z,977.71
2019-04-25T05:23:50.917Z,977.78
2019-04-25T05:24:50.916Z,977.74
2019-04-25T05:25:50.921Z,977.79
2019-04-25T05:26:50.915Z,977.75
2019-04-25T05:28:02.197Z,977.79
2019-04-25T05:28:50.914Z,977.75
2019-04-25T05:29:50.915Z,977.81
2019-04-25T05:30:50.913Z,977.79
2019-04-25T05:31:50.918Z,977.79
2019-04-25T05:32:50.913Z,977.80
2019-04-25T05:33:50.922Z,977.86
2019-04-25T05:34:50.915Z,977.81
2019-04-25T05:35:50.912Z,977.83
2019-04-25T05:36:50.911Z,977.81
2019-04-25T05:37:50.911Z,977.83
2019-04-25T05:38:50.911Z,977.77
2019-04-25T05:39:50.913Z,977.76
2019-04-25T05:40:50.912Z,977.80
2019-04-25T05:41:50.911Z,977.83
2019-04-25T05:42:50.915Z,977.81
2019-04-25T05:43:50.915Z,977.77
2019-04-25T05:44:50.912Z,977.76
2019-04-25T05:45:50.918Z,977.76
2019-04-25T05:46:50.912Z,977.76
2019-04-25T05:47:50.909Z,977.77
2019-04-25T05:48:50.912Z,977.77
2019-04-25T05:49:50.909Z,977.77
2019-04-25T05:50:50.908Z,977.71
2019-04-25T05:51:50.909Z,977.73
2019-04-25T05:52:50.909Z,977.73
2019-04-25T05:53:50.909Z,977.74
2019-04-25T05:54:50.908Z,977.72
2019-04-25T05:55:50.908Z,977.75
2019-04-25T05:56:50.908Z,977.73
2019-04-25T05:57:50.908Z,977.73
2019-04-25T05:58:50.908Z,977.71
2019-04-25T05:59:50.909Z,977.72
2019-04-25T06:00:50.912Z,977.69
2019-04-25T06:01:50.908Z,977.69
2019-04-25T06:02:50.907Z,977.66
2019-04-25T06:03:50.908Z,977.64
2019-04-25T06:04:50.908Z,977.59
2019-04-25T06:05:50.908Z,977.61
2019-04-25T06:06:50.906Z,977.56
2019-04-25T06:07:50.911Z,977.57
2019-04-25T06:08:50.906Z,977.60
2019-04-25T06:09:50.906Z,977.58
2019-04-25T06:10:50.908Z,977.56
2019-04-25T06:11:50.908Z,977.55
2019-04-25T06:12:50.908Z,977.60
2019-04-25T06:13:50.905Z,977.55
2019-04-25T06:14:50.912Z,977.53
2019-04-25T06:15:50.905Z,977.56
2019-04-25T06:16:50.905Z,977.52
2019-04-25T06:17:50.904Z,977.58
2019-04-25T06:18:50.909Z,977.53
2019-04-25T06:19:50.904Z,977.54
2019-04-25T06:20:50.904Z,977.59
2019-04-25T06:21:50.902Z,977.55
2019-04-25T06:22:50.903Z,977.53
2019-04-25T06:23:50.906Z,977.52
2019-04-25T06:24:50.908Z,977.53
2019-04-25T06:25:50.902Z,977.53
2019-04-25T06:26:50.909Z,977.53
2019-04-25T06:27:56.356Z,977.52
2019-04-25T06:28:57.086Z,977.52
2019-04-25T06:29:58.059Z,977.46
2019-04-25T06:30:50.904Z,977.43
2019-04-25T06:32:03.317Z,977.44
2019-04-25T06:32:50.902Z,977.42
2019-04-25T06:33:50.973Z,977.47
2019-04-25T06:34:50.902Z,977.46
2019-04-25T06:35:50.901Z,977.45
2019-04-25T06:36:50.903Z,977.46
2019-04-25T06:37:50.903Z,977.44
2019-04-25T06:38:50.900Z,977.46
2019-04-25T06:39:50.903Z,977.49
2019-04-25T06:40:50.901Z,977.50
2019-04-25T06:41:50.903Z,977.47
2019-04-25T06:42:50.901Z,977.47
2019-04-25T06:43:50.901Z,977.51
2019-04-25T06:44:50.901Z,977.52
2019-04-25T06:45:50.901Z,977.49
2019-04-25T06:46:50.901Z,977.47
2019-04-25T06:47:50.902Z,977.50
2019-04-25T06:48:50.901Z,977.45
2019-04-25T06:49:50.901Z,977.47
2019-04-25T06:50:50.902Z,977.43
2019-04-25T06:51:50.901Z,977.45
2019-04-25T06:52:50.901Z,977.42
2019-04-25T06:53:50.901Z,977.40
2019-04-25T06:54:50.902Z,977.41
2019-04-25T06:55:50.903Z,977.39
2019-04-25T06:56:50.902Z,977.33
2019-04-25T06:57:50.902Z,977.36
2019-04-25T06:58:50.904Z,977.32
2019-04-25T06:59:50.902Z,977.39
2019-04-25T07:00:58.755Z,977.39
2019-04-25T07:01:50.905Z,977.32
2019-04-25T07:02:50.904Z,977.32
2019-04-25T07:03:50.903Z,977.37
2019-04-25T07:04:51.630Z,977.39
2019-04-25T07:05:50.904Z,977.35
2019-04-25T07:06:50.909Z,977.40
2019-04-25T07:07:50.905Z,977.35
2019-04-25T07:08:50.909Z,977.36
2019-04-25T07:09:50.995Z,977.41
2019-04-25T07:10:50.912Z,977.40
2019-04-25T07:11:50.907Z,977.40
2019-04-25T07:12:50.909Z,977.37
2019-04-25T07:13:50.908Z,977.32
2019-04-25T07:14:50.909Z,977.28
2019-04-25T07:15:50.917Z,977.29
2019-04-25T07:16:50.910Z,977.25
2019-04-25T07:17:50.910Z,977.22
2019-04-25T07:18:50.910Z,977.23
2019-04-25T07:19:50.911Z,977.25
2019-04-25T07:20:50.911Z,977.19
2019-04-25T07:21:50.921Z,977.22
2019-04-25T07:22:50.913Z,977.14
2019-04-25T07:23:50.919Z,977.23
2019-04-25T07:24:50.914Z,977.14
2019-04-25T07:25:50.919Z,977.20
2019-04-25T07:26:50.916Z,977.22
2019-04-25T07:27:50.915Z,977.14
2019-04-25T07:28:50.917Z,977.11
2019-04-25T07:29:50.921Z,977.07
2019-04-25T07:30:52.681Z,977.10
2019-04-25T07:31:50.921Z,977.06
2019-04-25T07:32:50.920Z,977.07
2019-04-25T07:33:50.919Z,977.08
2019-04-25T07:34:50.920Z,977.11
2019-04-25T07:35:50.922Z,977.09
2019-04-25T07:36:50.926Z,977.14
2019-04-25T07:37:50.923Z,977.10
2019-04-25T07:39:04.891Z,977.06
2019-04-25T07:39:50.924Z,977.06
2019-04-25T07:40:50.934Z,977.07
2019-04-25T07:41:50.939Z,977.04
2019-04-25T07:42:50.925Z,977.04
2019-04-25T07:43:50.928Z,977.04
2019-04-25T07:44:53.431Z,977.04
2019-04-25T07:45:50.928Z,977.05
2019-04-25T07:46:50.942Z,977.01
2019-04-25T07:47:50.996Z,977.03
2019-04-25T07:48:50.932Z,976.96
2019-04-25T07:49:50.932Z,976.98
2019-04-25T07:50:50.940Z,976.93
2019-04-25T07:51:50.933Z,976.93
2019-04-25T07:52:50.940Z,976.92
2019-04-25T07:53:50.935Z,976.94
2019-04-25T07:54:50.940Z,976.86
2019-04-25T07:55:50.937Z,976.90
2019-04-25T07:56:50.943Z,976.90
2019-04-25T07:57:50.949Z,976.89
2019-04-25T07:58:52.734Z,976.87
2019-04-25T07:59:52.152Z,976.87
2019-04-25T08:00:50.945Z,976.87
2019-04-25T08:01:50.942Z,976.89
2019-04-25T08:02:50.944Z,976.87
2019-04-25T08:03:50.946Z,976.88
2019-04-25T08:04:50.946Z,976.91
2019-04-25T08:05:50.947Z,976.85
2019-04-25T08:06:50.948Z,976.90
2019-04-25T08:07:50.949Z,976.87
2019-04-25T08:08:50.956Z,976.94
2019-04-25T08:09:50.951Z,976.96
2019-04-25T08:10:50.953Z,976.97
2019-04-25T08:11:50.963Z,976.94
2019-04-25T08:12:50.955Z,976.94
2019-04-25T08:13:50.961Z,976.95
2019-04-25T08:14:50.957Z,976.92
2019-04-25T08:15:50.964Z,976.97
2019-04-25T08:16:50.961Z,976.92
2019-04-25T08:17:50.962Z,976.95
2019-04-25T08:18:50.963Z,976.92
2019-04-25T08:19:50.965Z,976.94
2019-04-25T08:20:50.965Z,976.91
2019-04-25T08:21:50.966Z,976.87
2019-04-25T08:22:57.077Z,976.82
2019-04-25T08:23:50.970Z,976.81
2019-04-25T08:24:50.972Z,976.72
2019-04-25T08:25:50.975Z,976.75
2019-04-25T08:26:50.973Z,976.70
2019-04-25T08:27:50.976Z,976.76
2019-04-25T08:28:55.740Z,976.73
2019-04-25T08:29:50.982Z,976.72
2019-04-25T08:30:50.986Z,976.71
2019-04-25T08:31:50.980Z,976.64
2019-04-25T08:32:50.981Z,976.70
2019-04-25T08:33:50.989Z,976.68
2019-04-25T08:34:50.987Z,976.68
2019-04-25T08:36:04.265Z,976.67
2019-04-25T08:36:50.988Z,976.66
2019-04-25T08:37:50.989Z,976.62
2019-04-25T08:38:50.991Z,976.58
2019-04-25T08:39:50.993Z,976.55
2019-04-25T08:40:50.994Z,976.56
2019-04-25T08:41:50.998Z,976.62
2019-04-25T08:42:50.997Z,976.61
2019-04-25T08:43:51.004Z,976.62
2019-04-25T08:44:51.005Z,976.58
2019-04-25T08:45:51.005Z,976.61
2019-04-25T08:46:51.003Z,976.66
2019-04-25T08:47:51.007Z,976.59
2019-04-25T08:48:51.008Z,976.62
2019-04-25T08:49:51.010Z,976.62
2019-04-25T08:50:51.015Z,976.63
2019-04-25T08:51:51.011Z,976.64
2019-04-25T08:52:51.015Z,976.61
2019-04-25T08:53:51.020Z,976.58
2019-04-25T08:54:51.017Z,976.58
2019-04-25T08:55:51.019Z,976.57
2019-04-25T08:56:51.021Z,976.56
2019-04-25T08:57:51.023Z,976.56
2019-04-25T08:59:03.347Z,976.52
2019-04-25T08:59:52.920Z,976.52
2019-04-25T09:00:59.168Z,976.53
2019-04-25T09:01:51.034Z,976.50
2019-04-25T09:02:51.031Z,976.48
2019-04-25T09:03:51.034Z,976.45
2019-04-25T09:04:51.043Z,976.43
2019-04-25T09:05:51.100Z,976.44
2019-04-25T09:06:51.047Z,976.44
2019-04-25T09:07:51.043Z,976.43
2019-04-25T09:08:51.043Z,976.42
2019-04-25T09:09:51.056Z,976.38
2019-04-25T09:10:51.047Z,976.38
2019-04-25T09:11:51.050Z,976.40
2019-04-25T09:12:51.051Z,976.36
2019-04-25T09:13:51.052Z,976.42
2019-04-25T09:14:51.054Z,976.36
2019-04-25T09:15:51.057Z,976.31
2019-04-25T09:16:51.059Z,976.34
2019-04-25T09:17:51.064Z,976.34
2019-04-25T09:18:51.063Z,976.35
2019-04-25T09:19:51.065Z,976.35
2019-04-25T09:20:51.071Z,976.35
2019-04-25T09:21:51.068Z,976.36
2019-04-25T09:22:51.074Z,976.35
2019-04-25T09:23:51.078Z,976.30
2019-04-25T09:24:51.076Z,976.27
2019-04-25T09:25:51.080Z,976.24
2019-04-25T09:26:51.080Z,976.28
2019-04-25T09:27:51.082Z,976.23
2019-04-25T09:28:51.085Z,976.20
2019-04-25T09:29:51.085Z,976.20
2019-04-25T09:30:51.089Z,976.17
2019-04-25T09:31:51.091Z,976.19
2019-04-25T09:32:51.094Z,976.15
2019-04-25T09:33:51.096Z,976.14
2019-04-25T09:34:51.100Z,976.10
2019-04-25T09:35:51.100Z,976.09
2019-04-25T09:36:51.103Z,976.06
2019-04-25T09:37:51.106Z,976.08
2019-04-25T09:38:51.107Z,976.09
2019-04-25T09:39:51.110Z,976.08
2019-04-25T09:40:51.116Z,976.06
2019-04-25T09:41:51.114Z,976.07
2019-04-25T09:42:51.117Z,976.06
2019-04-25T09:43:51.120Z,976.03
2019-04-25T09:44:51.122Z,976.03
2019-04-25T09:45:51.126Z,976.02
2019-04-25T09:46:51.131Z,976.00
2019-04-25T09:47:51.130Z,976.00
2019-04-25T09:48:51.139Z,976.02
2019-04-25T09:49:51.133Z,975.99
2019-04-25T09:50:51.141Z,975.96
2019-04-25T09:51:51.138Z,975.89
2019-04-25T09:52:51.141Z,975.86
2019-04-25T09:53:51.542Z,975.86
2019-04-25T09:54:51.147Z,975.85
2019-04-25T09:55:51.149Z,975.84
2019-04-25T09:56:51.152Z,975.85
2019-04-25T09:57:51.157Z,975.83
2019-04-25T09:58:51.160Z,975.84
2019-04-25T09:59:51.159Z,975.80
2019-04-25T10:00:51.163Z,975.82
2019-04-25T10:01:51.167Z,975.80
2019-04-25T10:02:51.167Z,975.78
2019-04-25T10:03:51.170Z,975.75
2019-04-25T10:04:51.184Z,975.76
2019-04-25T10:05:51.180Z,975.77
2019-04-25T10:06:51.177Z,975.74
2019-04-25T10:07:51.184Z,975.73
2019-04-25T10:08:51.182Z,975.71
2019-04-25T10:09:51.186Z,975.69
2019-04-25T10:10:52.030Z,975.69
2019-04-25T10:11:51.190Z,975.71
2019-04-25T10:12:51.193Z,975.77
2019-04-25T10:13:51.200Z,975.78
2019-04-25T10:14:51.198Z,975.72
2019-04-25T10:15:51.201Z,975.67
2019-04-25T10:16:52.107Z,975.66
2019-04-25T10:17:51.205Z,975.65
2019-04-25T10:18:51.209Z,975.65
2019-04-25T10:19:51.211Z,975.63
2019-04-25T10:20:51.214Z,975.63
2019-04-25T10:21:53.426Z,975.65
2019-04-25T10:22:51.220Z,975.69
2019-04-25T10:23:51.306Z,975.66
2019-04-25T10:25:00.393Z,975.67
2019-04-25T10:25:51.229Z,975.60
2019-04-25T10:26:51.233Z,975.61
2019-04-25T10:27:51.910Z,975.56
2019-04-25T10:28:51.830Z,975.56
2019-04-25T10:29:55.108Z,975.55
2019-04-25T10:30:51.245Z,975.56
2019-04-25T10:31:51.310Z,975.52
2019-04-25T10:32:51.254Z,975.51
2019-04-25T10:33:51.250Z,975.44
2019-04-25T10:34:51.682Z,975.46
2019-04-25T10:35:58.321Z,975.48
2019-04-25T10:36:51.259Z,975.47
2019-04-25T10:37:51.267Z,975.46
2019-04-25T10:39:06.669Z,975.50
2019-04-25T10:39:51.393Z,975.51
2019-04-25T10:40:51.274Z,975.47
2019-04-25T10:41:51.279Z,975.44
2019-04-25T10:42:51.276Z,975.45
2019-04-25T10:43:51.280Z,975.41
2019-04-25T10:44:52.279Z,975.35
2019-04-25T10:45:51.284Z,975.35
2019-04-25T10:46:51.289Z,975.29
2019-04-25T10:47:51.296Z,975.24
2019-04-25T10:48:52.361Z,975.21
2019-04-25T10:49:53.308Z,975.23
2019-04-25T10:50:53.522Z,975.18
2019-04-25T10:51:51.304Z,975.09
2019-04-25T10:52:52.348Z,975.05
2019-04-25T10:53:51.338Z,975.06
2019-04-25T10:54:52.229Z,975.03
2019-04-25T10:55:51.753Z,975.04
2019-04-25T10:56:52.131Z,975.02
2019-04-25T10:57:51.322Z,974.99
2019-04-25T10:58:51.327Z,974.98
2019-04-25T11:00:00.405Z,975.00
2019-04-25T11:00:51.332Z,974.97
2019-04-25T11:01:51.335Z,974.97
2019-04-25T11:02:52.352Z,975.02
2019-04-25T11:03:51.682Z,974.97
2019-04-25T11:04:51.735Z,974.94
2019-04-25T11:05:52.269Z,974.94
2019-04-25T11:06:51.714Z,974.96
2019-04-25T11:07:54.076Z,974.99
2019-04-25T11:08:51.361Z,975.04
2019-04-25T11:09:51.399Z,974.99
2019-04-25T11:10:51.364Z,975.01
2019-04-25T11:11:52.348Z,974.99
2019-04-25T11:12:51.377Z,974.98
2019-04-25T11:13:52.273Z,974.96
2019-04-25T11:14:51.378Z,974.93
2019-04-25T11:15:51.998Z,974.87
2019-04-25T11:16:51.391Z,974.91
2019-04-25T11:17:51.389Z,974.99
2019-04-25T11:18:51.394Z,974.94
2019-04-25T11:19:51.397Z,974.89
2019-04-25T11:20:51.402Z,974.88
2019-04-25T11:21:51.767Z,974.92
2019-04-25T11:22:51.772Z,974.91
2019-04-25T11:23:51.414Z,974.86
2019-04-25T11:24:51.415Z,974.84
2019-04-25T11:25:52.719Z,974.82
2019-04-25T11:26:51.582Z,974.77
2019-04-25T11:27:52.421Z,974.83
2019-04-25T11:28:51.429Z,974.78
2019-04-25T11:29:51.432Z,974.80
2019-04-25T11:30:52.349Z,974.85
2019-04-25T11:31:51.440Z,974.77
2019-04-25T11:32:53.199Z,974.80
2019-04-25T11:33:51.447Z,974.79
2019-04-25T11:34:51.451Z,974.73
2019-04-25T11:35:51.456Z,974.77
2019-04-25T11:36:51.471Z,974.87
2019-04-25T11:37:51.461Z,974.83
2019-04-25T11:38:52.254Z,974.86
2019-04-25T11:39:51.470Z,974.81
2019-04-25T11:40:51.578Z,974.78
2019-04-25T11:41:51.477Z,974.79
2019-04-25T11:42:51.481Z,974.80
2019-04-25T11:43:51.486Z,974.79
2019-04-25T11:44:52.188Z,974.67
2019-04-25T11:45:53.773Z,974.63
2019-04-25T11:46:51.497Z,974.59
2019-04-25T11:47:51.503Z,974.67
2019-04-25T11:48:52.569Z,974.60
2019-04-25T11:49:51.948Z,974.66
2019-04-25T11:50:52.487Z,974.63
2019-04-25T11:51:52.367Z,974.63
2019-04-25T11:52:52.547Z,974.61
2019-04-25T11:53:51.604Z,974.55
2019-04-25T11:54:52.352Z,974.57
2019-04-25T11:55:53.163Z,974.56
2019-04-25T11:56:51.540Z,974.63
2019-04-25T11:57:52.695Z,974.59
2019-04-25T11:58:51.548Z,974.58
2019-04-25T11:59:52.334Z,974.57
2019-04-25T12:00:51.562Z,974.50
2019-04-25T12:01:52.290Z,974.48
2019-04-25T12:02:52.224Z,974.50
2019-04-25T12:03:52.653Z,974.52
2019-04-25T12:04:51.574Z,974.53
2019-04-25T12:05:51.580Z,974.53
2019-04-25T12:06:51.586Z,974.52
2019-04-25T12:07:51.588Z,974.47
2019-04-25T12:08:51.611Z,974.48
2019-04-25T12:09:52.242Z,974.49
2019-04-25T12:10:51.682Z,974.48
2019-04-25T12:11:52.772Z,974.41
2019-04-25T12:12:51.610Z,974.38
2019-04-25T12:13:51.656Z,974.36
2019-04-25T12:14:51.723Z,974.34
2019-04-25T12:15:51.854Z,974.35
2019-04-25T12:16:52.525Z,974.35
2019-04-25T12:17:51.636Z,974.34
2019-04-25T12:18:51.771Z,974.35
2019-04-25T12:19:53.523Z,974.34
2019-04-25T12:20:51.652Z,974.35
2019-04-25T12:21:53.572Z,974.33
2019-04-25T12:23:03.478Z,974.27
2019-04-25T12:23:51.662Z,974.26
2019-04-25T12:24:52.275Z,974.26
2019-04-25T12:25:52.490Z,974.27
2019-04-25T12:26:51.676Z,974.31
2019-04-25T12:27:53.530Z,974.23
2019-04-25T12:28:51.687Z,974.29